PWSweather.com
Personal Weather Stations
Station Observations

SasamonSasamonES 09123

Lat: 42.4180252, Lon: -4.0413679

Elevation: 2706.692

Station Type: PCE-FWS 20

http://www.mipaginapersonal.movistar.es/web3/meteosasamon/index.htm

High Low Average
Temperature 56.7°F13.7°C 38.1°F3.4°C 48.5°F9.2°C
Dew Point 39.4°F4.1°C 31.5°F-0.3°C 34.4°F1.3°C
Winds 19.1 mph 30.7 kmh 3.0 mph 4.8 kmh 13.0 mph NE20.9 kmh NE
Wind Gusts 32.7 mph52.6 kmh 7.6 mph12.2 kmh 24.0 mph38.6 kmh
Humidity 83% 42% 61%
Pressure 30.16 in1021.3 mb 30.04 in1017.3 mb -
Precipitation 0.00 in0.0 mm - -
Hour Temp Dew Point Humidity Winds Wind Gusts Pressure Precip Precip Rate Daily Precip Total
09:43 AM 43.2°F6.2°C 33.5°F0.8°C 69% 12.9 mph NNE20.8 kmh NNE 27.3 mph43.9 kmh 30.14 in1020.7 mb 0.00 in0.0 mm 0.00 in/hr0.0 mm/hr 0.00 in0.0 mm
09:54 AM 43.7°F6.5°C 32.9°F0.5°C 66% 10.8 mph ENE17.4 kmh ENE 19.7 mph31.7 kmh 30.16 in1021.3 mb 0.00 in0.0 mm 0.00 in/hr0.0 mm/hr 0.00 in0.0 mm
10:05 AM 43.7°F6.5°C 32.5°F0.3°C 65% 13.0 mph NE20.9 kmh NE 20.6 mph33.2 kmh 30.15 in1021.0 mb 0.00 in0.0 mm 0.00 in/hr0.0 mm/hr 0.00 in0.0 mm
10:16 AM 44.8°F7.1°C 32.7°F0.4°C 63% 13.0 mph NE20.9 kmh NE 25.1 mph40.4 kmh 30.14 in1020.7 mb 0.00 in0.0 mm 0.00 in/hr0.0 mm/hr 0.00 in0.0 mm
10:27 AM 45.1°F7.3°C 32.6°F0.3°C 62% 15.3 mph NE24.6 kmh NE 27.3 mph43.9 kmh 30.14 in1020.7 mb 0.00 in0.0 mm 0.00 in/hr0.0 mm/hr 0.00 in0.0 mm
10:38 AM 45.7°F7.6°C 33.1°F0.6°C 62% 12.5 mph NE20.1 kmh NE 30.4 mph48.9 kmh 30.14 in1020.7 mb 0.00 in0.0 mm 0.00 in/hr0.0 mm/hr 0.00 in0.0 mm
10:49 AM 46.0°F7.8°C 33.5°F0.8°C 62% 13.2 mph NE21.2 kmh NE 28.2 mph45.4 kmh 30.14 in1020.7 mb 0.00 in0.0 mm 0.00 in/hr0.0 mm/hr 0.00 in0.0 mm
11:00 AM 47.5°F8.6°C 34.4°F1.3°C 61% 12.7 mph NE20.4 kmh NE 25.9 mph41.7 kmh 30.15 in1021.0 mb 0.00 in0.0 mm 0.00 in/hr0.0 mm/hr 0.00 in0.0 mm
11:11 AM 47.8°F8.8°C 34.3°F1.3°C 60% 13.0 mph NE20.9 kmh NE 22.1 mph35.6 kmh 30.15 in1021.0 mb 0.00 in0.0 mm 0.00 in/hr0.0 mm/hr 0.00 in0.0 mm
11:22 AM 48.4°F9.1°C 34.3°F1.3°C 59% 12.6 mph NE20.3 kmh NE 25.9 mph41.7 kmh 30.14 in1020.7 mb 0.00 in0.0 mm 0.00 in/hr0.0 mm/hr 0.00 in0.0 mm
11:33 AM 48.6°F9.2°C 35.0°F1.7°C 60% 17.6 mph NE28.3 kmh NE 29.8 mph48.0 kmh 30.13 in1020.3 mb 0.00 in0.0 mm 0.00 in/hr0.0 mm/hr 0.00 in0.0 mm
11:44 AM 49.1°F9.5°C 35.0°F1.7°C 59% 16.8 mph NE27.0 kmh NE 30.4 mph48.9 kmh 30.13 in1020.3 mb 0.00 in0.0 mm 0.00 in/hr0.0 mm/hr 0.00 in0.0 mm
11:55 AM 49.3°F9.6°C 35.2°F1.8°C 59% 14.7 mph NE23.7 kmh NE 30.4 mph48.9 kmh 30.13 in1020.3 mb 0.00 in0.0 mm 0.00 in/hr0.0 mm/hr 0.00 in0.0 mm
12:06 PM 49.3°F9.6°C 35.2°F1.8°C 59% 16.3 mph N26.2 kmh N 28.9 mph46.5 kmh 30.13 in1020.3 mb 0.00 in0.0 mm 0.00 in/hr0.0 mm/hr 0.00 in0.0 mm
12:17 PM 50.4°F10.2°C 36.2°F2.3°C 59% 17.4 mph NE28.0 kmh NE 32.7 mph52.6 kmh 30.13 in1020.3 mb 0.00 in0.0 mm 0.00 in/hr0.0 mm/hr 0.00 in0.0 mm
12:28 PM 50.5°F10.3°C 35.9°F2.2°C 58% 17.6 mph NE28.3 kmh NE 32.0 mph51.5 kmh 30.12 in1020.0 mb 0.00 in0.0 mm 0.00 in/hr0.0 mm/hr 0.00 in0.0 mm
12:39 PM 50.7°F10.4°C 36.1°F2.3°C 58% 18.5 mph NE29.8 kmh NE 30.4 mph48.9 kmh 30.12 in1020.0 mb 0.00 in0.0 mm 0.00 in/hr0.0 mm/hr 0.00 in0.0 mm
12:50 PM 51.1°F10.6°C 35.9°F2.2°C 57% 18.3 mph NNE29.5 kmh NNE 31.1 mph50.1 kmh 30.12 in1020.0 mb 0.00 in0.0 mm 0.00 in/hr0.0 mm/hr 0.00 in0.0 mm
01:01 PM 52.2°F11.2°C 36.4°F2.4°C 56% 15.0 mph NE24.1 kmh NE 28.9 mph46.5 kmh 30.12 in1020.0 mb 0.00 in0.0 mm 0.00 in/hr0.0 mm/hr 0.00 in0.0 mm
01:12 PM 52.7°F11.5°C 34.9°F1.6°C 52% 13.1 mph NE21.1 kmh NE 23.5 mph37.8 kmh 30.12 in1020.0 mb 0.00 in0.0 mm 0.00 in/hr0.0 mm/hr 0.00 in0.0 mm
01:23 PM 53.4°F11.9°C 34.5°F1.4°C 50% 13.8 mph NE22.2 kmh NE 27.3 mph43.9 kmh 30.12 in1020.0 mb 0.00 in0.0 mm 0.00 in/hr0.0 mm/hr 0.00 in0.0 mm
01:34 PM 53.4°F11.9°C 34.0°F1.1°C 49% 14.7 mph NE23.7 kmh NE 26.6 mph42.8 kmh 30.12 in1020.0 mb 0.00 in0.0 mm 0.00 in/hr0.0 mm/hr 0.00 in0.0 mm
01:45 PM 53.8°F12.1°C 34.8°F1.6°C 50% 17.7 mph NE28.5 kmh NE 32.0 mph51.5 kmh 30.11 in1019.6 mb 0.00 in0.0 mm 0.00 in/hr0.0 mm/hr 0.00 in0.0 mm
01:56 PM 54.9°F12.7°C 34.7°F1.5°C 48% 12.8 mph NE20.6 kmh NE 25.9 mph41.7 kmh 30.10 in1019.3 mb 0.00 in0.0 mm 0.00 in/hr0.0 mm/hr 0.00 in0.0 mm
02:07 PM 55.2°F12.9°C 34.5°F1.4°C 47% 11.6 mph E18.7 kmh E 22.8 mph36.7 kmh 30.10 in1019.3 mb 0.00 in0.0 mm 0.00 in/hr0.0 mm/hr 0.00 in0.0 mm
02:18 PM 55.6°F13.1°C 33.6°F0.9°C 45% 12.6 mph NE20.3 kmh NE 25.9 mph41.7 kmh 30.09 in1019.0 mb 0.00 in0.0 mm 0.00 in/hr0.0 mm/hr 0.00 in0.0 mm
02:29 PM 55.2°F12.9°C 34.5°F1.4°C 47% 18.3 mph NE29.5 kmh NE 32.0 mph51.5 kmh 30.09 in1019.0 mb 0.00 in0.0 mm 0.00 in/hr0.0 mm/hr 0.00 in0.0 mm
02:40 PM 55.8°F13.2°C 32.5°F0.3°C 43% 16.4 mph NNE26.4 kmh NNE 32.0 mph51.5 kmh 30.08 in1018.6 mb 0.00 in0.0 mm 0.00 in/hr0.0 mm/hr 0.00 in0.0 mm
02:51 PM 55.9°F13.3°C 33.3°F0.7°C 44% 15.2 mph NE24.5 kmh NE 29.8 mph48.0 kmh 30.08 in1018.6 mb 0.00 in0.0 mm 0.00 in/hr0.0 mm/hr 0.00 in0.0 mm
03:02 PM 56.1°F13.4°C 34.1°F1.2°C 45% 13.8 mph NE22.2 kmh NE 28.2 mph45.4 kmh 30.07 in1018.3 mb 0.00 in0.0 mm 0.00 in/hr0.0 mm/hr 0.00 in0.0 mm
03:13 PM 56.5°F13.6°C 34.4°F1.3°C 45% 12.4 mph NE20.0 kmh NE 28.2 mph45.4 kmh 30.08 in1018.6 mb 0.00 in0.0 mm 0.00 in/hr0.0 mm/hr 0.00 in0.0 mm
03:24 PM 55.9°F13.3°C 33.3°F0.7°C 44% 14.2 mph NE22.9 kmh NE 29.8 mph48.0 kmh 30.08 in1018.6 mb 0.00 in0.0 mm 0.00 in/hr0.0 mm/hr 0.00 in0.0 mm
03:35 PM 56.3°F13.5°C 32.3°F0.2°C 42% 12.1 mph NE19.5 kmh NE 30.4 mph48.9 kmh 30.08 in1018.6 mb 0.00 in0.0 mm 0.00 in/hr0.0 mm/hr 0.00 in0.0 mm
03:46 PM 55.9°F13.3°C 32.7°F0.4°C 43% 14.4 mph NE23.2 kmh NE 28.2 mph45.4 kmh 30.08 in1018.6 mb 0.00 in0.0 mm 0.00 in/hr0.0 mm/hr 0.00 in0.0 mm
03:57 PM 55.8°F13.2°C 33.7°F0.9°C 45% 16.0 mph NNE25.7 kmh NNE 28.2 mph45.4 kmh 30.07 in1018.3 mb 0.00 in0.0 mm 0.00 in/hr0.0 mm/hr 0.00 in0.0 mm
04:08 PM 56.7°F13.7°C 32.6°F0.3°C 42% 15.9 mph NE25.6 kmh NE 25.1 mph40.4 kmh 30.06 in1017.9 mb 0.00 in0.0 mm 0.00 in/hr0.0 mm/hr 0.00 in0.0 mm
04:19 PM 56.5°F13.6°C 32.5°F0.3°C 42% 14.1 mph NNE22.7 kmh NNE 25.9 mph41.7 kmh 30.05 in1017.6 mb 0.00 in0.0 mm 0.00 in/hr0.0 mm/hr 0.00 in0.0 mm
04:30 PM 55.2°F12.9°C 32.6°F0.3°C 44% 14.5 mph ENE23.3 kmh ENE 27.3 mph43.9 kmh 30.05 in1017.6 mb 0.00 in0.0 mm 0.00 in/hr0.0 mm/hr 0.00 in0.0 mm
04:41 PM 55.4°F13.0°C 31.5°F-0.3°C 42% 19.1 mph NNE30.7 kmh NNE 32.0 mph51.5 kmh 30.05 in1017.6 mb 0.00 in0.0 mm 0.00 in/hr0.0 mm/hr 0.00 in0.0 mm
04:52 PM 56.1°F13.4°C 32.8°F0.4°C 43% 13.2 mph NNE21.2 kmh NNE 26.6 mph42.8 kmh 30.06 in1017.9 mb 0.00 in0.0 mm 0.00 in/hr0.0 mm/hr 0.00 in0.0 mm
05:03 PM 55.0°F12.8°C 33.1°F0.6°C 45% 12.7 mph NE20.4 kmh NE 22.1 mph35.6 kmh 30.06 in1017.9 mb 0.00 in0.0 mm 0.00 in/hr0.0 mm/hr 0.00 in0.0 mm
05:14 PM 53.6°F12.0°C 33.0°F0.6°C 47% 15.7 mph NE25.3 kmh NE 26.6 mph42.8 kmh 30.05 in1017.6 mb 0.00 in0.0 mm 0.00 in/hr0.0 mm/hr 0.00 in0.0 mm
05:25 PM 53.8°F12.1°C 32.6°F0.3°C 46% 17.0 mph NE27.4 kmh NE 28.2 mph45.4 kmh 30.05 in1017.6 mb 0.00 in0.0 mm 0.00 in/hr0.0 mm/hr 0.00 in0.0 mm
05:36 PM 54.1°F12.3°C 32.3°F0.2°C 45% 14.7 mph NNE23.7 kmh NNE 25.9 mph41.7 kmh 30.04 in1017.3 mb 0.00 in0.0 mm 0.00 in/hr0.0 mm/hr 0.00 in0.0 mm
05:47 PM 54.0°F12.2°C 32.7°F0.4°C 46% 17.5 mph NNE28.2 kmh NNE 28.9 mph46.5 kmh 30.04 in1017.3 mb 0.00 in0.0 mm 0.00 in/hr0.0 mm/hr 0.00 in0.0 mm
05:58 PM 54.0°F12.2°C 33.3°F0.7°C 47% 14.5 mph NE23.3 kmh NE 27.3 mph43.9 kmh 30.04 in1017.3 mb 0.00 in0.0 mm 0.00 in/hr0.0 mm/hr 0.00 in0.0 mm
06:09 PM 53.8°F12.1°C 33.2°F0.7°C 47% 16.2 mph NNE26.1 kmh NNE 28.9 mph46.5 kmh 30.04 in1017.3 mb 0.00 in0.0 mm 0.00 in/hr0.0 mm/hr 0.00 in0.0 mm
06:20 PM 53.4°F11.9°C 34.0°F1.1°C 49% 13.2 mph NNE21.2 kmh NNE 28.9 mph46.5 kmh 30.05 in1017.6 mb 0.00 in0.0 mm 0.00 in/hr0.0 mm/hr 0.00 in0.0 mm
06:31 PM 52.5°F11.4°C 33.7°F0.9°C 50% 11.3 mph NNE18.2 kmh NNE 22.1 mph35.6 kmh 30.05 in1017.6 mb 0.00 in0.0 mm 0.00 in/hr0.0 mm/hr 0.00 in0.0 mm
06:42 PM 52.2°F11.2°C 33.9°F1.1°C 51% 9.5 mph NE15.3 kmh NE 19.0 mph30.6 kmh 30.06 in1017.9 mb 0.00 in0.0 mm 0.00 in/hr0.0 mm/hr 0.00 in0.0 mm
06:53 PM 49.8°F9.9°C 39.1°F3.9°C 67% 13.2 mph N21.2 kmh N 23.5 mph37.8 kmh 30.06 in1017.9 mb 0.00 in0.0 mm 0.00 in/hr0.0 mm/hr 0.00 in0.0 mm
07:04 PM 48.9°F9.4°C 39.4°F4.1°C 70% 16.6 mph N26.7 kmh N 26.6 mph42.8 kmh 30.06 in1017.9 mb 0.00 in0.0 mm 0.00 in/hr0.0 mm/hr 0.00 in0.0 mm
07:15 PM 47.7°F8.7°C 38.9°F3.8°C 72% 14.8 mph NNE23.8 kmh NNE 20.6 mph33.2 kmh 30.06 in1017.9 mb 0.00 in0.0 mm 0.00 in/hr0.0 mm/hr 0.00 in0.0 mm
07:26 PM 46.9°F8.3°C 37.9°F3.3°C 71% 12.1 mph NNE19.5 kmh NNE 22.1 mph35.6 kmh 30.07 in1018.3 mb 0.00 in0.0 mm 0.00 in/hr0.0 mm/hr 0.00 in0.0 mm
07:37 PM 46.0°F7.8°C 35.9°F2.2°C 68% 12.4 mph NE20.0 kmh NE 19.7 mph31.7 kmh 30.07 in1018.3 mb 0.00 in0.0 mm 0.00 in/hr0.0 mm/hr 0.00 in0.0 mm
07:48 PM 44.8°F7.1°C 35.5°F1.9°C 70% 8.4 mph NNE13.5 kmh NNE 15.2 mph24.5 kmh 30.07 in1018.3 mb 0.00 in0.0 mm 0.00 in/hr0.0 mm/hr 0.00 in0.0 mm
07:59 PM 44.1°F6.7°C 36.6°F2.6°C 75% 10.4 mph NE16.7 kmh NE 16.8 mph27.0 kmh 30.08 in1018.6 mb 0.00 in0.0 mm 0.00 in/hr0.0 mm/hr 0.00 in0.0 mm
08:10 PM 43.3°F6.3°C 35.5°F1.9°C 74% 10.3 mph N16.6 kmh N 13.0 mph20.9 kmh 30.07 in1018.3 mb 0.00 in0.0 mm 0.00 in/hr0.0 mm/hr 0.00 in0.0 mm
08:21 PM 42.3°F5.7°C 34.5°F1.4°C 74% 3.9 mph NE6.3 kmh NE 12.1 mph19.5 kmh 30.07 in1018.3 mb 0.00 in0.0 mm 0.00 in/hr0.0 mm/hr 0.00 in0.0 mm
08:32 PM 41.9°F5.5°C 34.8°F1.6°C 76% 3.0 mph NE4.8 kmh NE 7.6 mph12.2 kmh 30.07 in1018.3 mb 0.00 in0.0 mm 0.00 in/hr0.0 mm/hr 0.00 in0.0 mm
08:43 PM 41.7°F5.4°C 35.0°F1.7°C 77% 5.8 mph NNE9.3 kmh NNE 9.8 mph15.8 kmh 30.08 in1018.6 mb 0.00 in0.0 mm 0.00 in/hr0.0 mm/hr 0.00 in0.0 mm
08:54 PM 41.0°F5.0°C 35.0°F1.7°C 79% 8.6 mph NNE13.8 kmh NNE 13.0 mph20.9 kmh 30.07 in1018.3 mb 0.00 in0.0 mm 0.00 in/hr0.0 mm/hr 0.00 in0.0 mm
09:05 PM 40.6°F4.8°C 34.6°F1.4°C 79% 8.7 mph NE14.0 kmh NE 13.6 mph21.9 kmh 30.07 in1018.3 mb 0.00 in0.0 mm 0.00 in/hr0.0 mm/hr 0.00 in0.0 mm
09:16 PM 40.8°F4.9°C 35.4°F1.9°C 81% 10.7 mph NNE17.2 kmh NNE 16.8 mph27.0 kmh 30.07 in1018.3 mb 0.00 in0.0 mm 0.00 in/hr0.0 mm/hr 0.00 in0.0 mm
09:27 PM 40.3°F4.6°C 34.9°F1.6°C 81% 8.6 mph N13.8 kmh N 15.2 mph24.5 kmh 30.07 in1018.3 mb 0.00 in0.0 mm 0.00 in/hr0.0 mm/hr 0.00 in0.0 mm
09:38 PM 40.3°F4.6°C 34.9°F1.6°C 81% 10.3 mph NNE16.6 kmh NNE 18.3 mph29.5 kmh 30.07 in1018.3 mb 0.00 in0.0 mm 0.00 in/hr0.0 mm/hr 0.00 in0.0 mm
09:49 PM 40.5°F4.7°C 35.1°F1.7°C 81% 6.3 mph NE10.1 kmh NE 13.6 mph21.9 kmh 30.07 in1018.3 mb 0.00 in0.0 mm 0.00 in/hr0.0 mm/hr 0.00 in0.0 mm
10:00 PM 40.6°F4.8°C 35.2°F1.8°C 81% 8.0 mph NE12.9 kmh NE 17.4 mph28.0 kmh 30.06 in1017.9 mb 0.00 in0.0 mm 0.00 in/hr0.0 mm/hr 0.00 in0.0 mm
10:11 PM 40.3°F4.6°C 34.9°F1.6°C 81% 6.9 mph NNW11.1 kmh NNW 13.6 mph21.9 kmh 30.07 in1018.3 mb 0.00 in0.0 mm 0.00 in/hr0.0 mm/hr 0.00 in0.0 mm
10:22 PM 40.3°F4.6°C 34.6°F1.4°C 80% 9.6 mph NE15.4 kmh NE 15.9 mph25.6 kmh 30.07 in1018.3 mb 0.00 in0.0 mm 0.00 in/hr0.0 mm/hr 0.00 in0.0 mm
10:33 PM 39.7°F4.3°C 34.4°F1.3°C 81% 9.1 mph NE14.6 kmh NE 16.8 mph27.0 kmh 30.07 in1018.3 mb 0.00 in0.0 mm 0.00 in/hr0.0 mm/hr 0.00 in0.0 mm
10:44 PM 39.4°F4.1°C 34.0°F1.1°C 81% 9.7 mph ENE15.6 kmh ENE 18.3 mph29.5 kmh 30.07 in1018.3 mb 0.00 in0.0 mm 0.00 in/hr0.0 mm/hr 0.00 in0.0 mm
10:55 PM 39.2°F4.0°C 34.2°F1.2°C 82% 9.4 mph NE15.1 kmh NE 16.8 mph27.0 kmh 30.07 in1018.3 mb 0.00 in0.0 mm 0.00 in/hr0.0 mm/hr 0.00 in0.0 mm
11:06 PM 39.4°F4.1°C 34.3°F1.3°C 82% 9.0 mph SSE14.5 kmh SSE 19.0 mph30.6 kmh 30.05 in1017.6 mb 0.00 in0.0 mm 0.00 in/hr0.0 mm/hr 0.00 in0.0 mm
11:17 PM 39.4°F4.1°C 34.3°F1.3°C 82% 12.1 mph NE19.5 kmh NE 25.1 mph40.4 kmh 30.06 in1017.9 mb 0.00 in0.0 mm 0.00 in/hr0.0 mm/hr 0.00 in0.0 mm
11:28 PM 39.2°F4.0°C 34.5°F1.4°C 83% 11.3 mph NE18.2 kmh NE 22.8 mph36.7 kmh 30.06 in1017.9 mb 0.00 in0.0 mm 0.00 in/hr0.0 mm/hr 0.00 in0.0 mm
11:39 PM 38.8°F3.8°C 34.1°F1.2°C 83% 14.1 mph NE22.7 kmh NE 25.9 mph41.7 kmh 30.06 in1017.9 mb 0.00 in0.0 mm 0.00 in/hr0.0 mm/hr 0.00 in0.0 mm
11:50 PM 38.1°F3.4°C 33.4°F0.8°C 83% 8.2 mph NE13.2 kmh NE 17.4 mph28.0 kmh 30.06 in1017.9 mb 0.00 in0.0 mm 0.00 in/hr0.0 mm/hr 0.00 in0.0 mm